createdAt,value
2022-12-23T00:00:26.052Z,5.05
2022-12-23T00:02:54.698Z,4.32
2022-12-23T00:05:25.068Z,5.20
2022-12-23T00:07:53.524Z,5.90
2022-12-23T00:10:22.036Z,5.55
2022-12-23T00:13:07.610Z,4.20
2022-12-23T00:15:36.191Z,5.70
2022-12-23T00:18:05.000Z,4.90
2022-12-23T00:20:34.907Z,6.50
2022-12-23T00:23:06.162Z,5.43
2022-12-23T00:25:42.253Z,5.72
2022-12-23T00:28:13.347Z,6.38
2022-12-23T00:30:48.100Z,3.65
2022-12-23T00:33:17.714Z,5.15
2022-12-23T00:35:47.926Z,3.60
2022-12-23T00:38:17.108Z,6.28
2022-12-23T00:41:03.172Z,6.10
2022-12-23T00:43:32.625Z,5.78
2022-12-23T00:46:01.219Z,6.43
2022-12-23T00:48:46.892Z,5.07
2022-12-23T00:51:16.832Z,8.52
2022-12-23T00:53:45.390Z,8.73
2022-12-23T00:56:13.971Z,6.70
2022-12-23T00:58:42.489Z,9.60
2022-12-23T01:01:28.417Z,11.23
2022-12-23T01:04:14.341Z,6.85
2022-12-23T01:06:44.058Z,12.25
2022-12-23T01:09:12.309Z,8.80
2022-12-23T01:11:40.685Z,10.02
2022-12-23T01:14:10.384Z,7.78
2022-12-23T01:16:39.790Z,11.10
2022-12-23T01:19:09.038Z,13.40
2022-12-23T01:21:37.454Z,10.50
2022-12-23T01:24:08.324Z,13.45
2022-12-23T01:26:37.492Z,14.27
2022-12-23T01:29:06.277Z,15.70
2022-12-23T01:31:34.901Z,11.63
2022-12-23T01:34:03.239Z,14.52
2022-12-23T01:36:31.664Z,12.25
2022-12-23T01:39:00.309Z,16.77
2022-12-23T01:41:51.046Z,13.98
2022-12-23T01:44:57.783Z,12.75
2022-12-23T01:47:33.243Z,11.73
2022-12-23T01:50:09.272Z,12.25
2022-12-23T01:52:44.891Z,12.95
2022-12-23T01:55:15.918Z,14.68
2022-12-23T01:57:47.237Z,11.95
2022-12-23T02:00:34.268Z,11.13
2022-12-23T02:03:20.213Z,13.70
2022-12-23T02:05:49.439Z,13.43
2022-12-23T02:08:36.175Z,12.65
2022-12-23T02:11:40.661Z,15.10
2022-12-23T02:14:45.617Z,15.45
2022-12-23T02:17:25.844Z,15.23
2022-12-23T02:20:51.341Z,14.15
2022-12-23T02:24:06.738Z,11.65
2022-12-23T02:27:14.680Z,12.27
2022-12-23T02:30:28.011Z,11.73
2022-12-23T02:33:37.602Z,16.98
2022-12-23T02:36:32.195Z,12.15
2022-12-23T02:39:07.812Z,14.30
2022-12-23T02:41:47.642Z,11.98
2022-12-23T02:44:27.224Z,13.70
2022-12-23T02:47:01.883Z,16.00
2022-12-23T02:49:35.945Z,9.52
2022-12-23T02:52:08.308Z,10.38
2022-12-23T02:54:41.666Z,9.82
2022-12-23T02:57:12.867Z,14.93
2022-12-23T02:59:45.740Z,9.63
2022-12-23T03:02:14.260Z,11.10
2022-12-23T03:04:44.304Z,10.55
2022-12-23T03:07:19.854Z,12.52
2022-12-23T03:09:59.749Z,11.70
2022-12-23T03:12:44.565Z,10.40
2022-12-23T03:15:29.072Z,14.52
2022-12-23T03:18:06.792Z,14.82
2022-12-23T03:20:45.691Z,12.23
2022-12-23T03:23:24.635Z,12.18
2022-12-23T03:26:03.366Z,9.38
2022-12-23T03:28:40.705Z,10.82
2022-12-23T03:31:16.612Z,10.55
2022-12-23T03:33:49.862Z,10.60
2022-12-23T03:36:25.977Z,10.63
2022-12-23T03:38:57.160Z,12.23
2022-12-23T03:41:31.843Z,6.55
2022-12-23T03:44:06.792Z,5.18
2022-12-23T03:46:41.654Z,8.55
2022-12-23T03:49:15.655Z,10.43
2022-12-23T03:51:52.346Z,11.80
2022-12-23T03:54:27.923Z,8.82
2022-12-23T03:57:02.315Z,10.95
2022-12-23T03:59:34.239Z,10.10
2022-12-23T04:02:10.687Z,13.48
2022-12-23T04:05:05.251Z,14.07
2022-12-23T04:07:40.623Z,14.57
2022-12-23T04:10:11.894Z,13.10
2022-12-23T04:12:41.354Z,14.18
2022-12-23T04:15:13.063Z,12.57
2022-12-23T04:17:42.145Z,8.05
2022-12-23T04:20:12.191Z,11.50
2022-12-23T04:22:43.450Z,15.13
2022-12-23T04:25:12.456Z,9.93
2022-12-23T04:27:41.130Z,12.43
2022-12-23T04:30:13.670Z,11.77
2022-12-23T04:32:42.709Z,15.55
2022-12-23T04:35:12.004Z,12.00
2022-12-23T04:37:41.681Z,11.30
2022-12-23T04:40:11.154Z,8.70
2022-12-23T04:42:39.760Z,12.80
2022-12-23T04:45:09.723Z,10.48
2022-12-23T04:47:40.582Z,12.13
2022-12-23T04:50:14.943Z,11.55
2022-12-23T04:52:45.503Z,15.20
2022-12-23T04:55:14.113Z,13.38
2022-12-23T04:57:42.815Z,12.50
2022-12-23T05:00:13.222Z,11.98
2022-12-23T05:02:41.504Z,12.25
2022-12-23T05:05:10.533Z,12.82
2022-12-23T05:07:38.755Z,14.43
2022-12-23T05:10:10.934Z,13.68
2022-12-23T05:12:39.284Z,11.70
2022-12-23T05:15:09.256Z,11.95
2022-12-23T05:17:37.887Z,12.43
2022-12-23T05:20:07.346Z,13.13
2022-12-23T05:22:35.754Z,19.65
2022-12-23T05:25:05.244Z,12.07
2022-12-23T05:27:35.044Z,15.32
2022-12-23T05:30:03.833Z,11.98
2022-12-23T05:32:32.696Z,13.27
2022-12-23T05:35:01.025Z,13.75
2022-12-23T05:37:29.483Z,7.88
2022-12-23T05:39:58.095Z,12.27
2022-12-23T05:42:26.865Z,10.10
2022-12-23T05:44:56.713Z,11.98
2022-12-23T05:47:25.135Z,13.77
2022-12-23T05:49:54.100Z,12.30
2022-12-23T05:52:22.543Z,12.75
2022-12-23T05:54:50.937Z,16.25
2022-12-23T05:57:19.270Z,13.13
2022-12-23T05:59:47.737Z,14.30
2022-12-23T06:02:18.327Z,13.32
2022-12-23T06:04:46.822Z,12.18
2022-12-23T06:07:15.240Z,15.75
2022-12-23T06:09:43.593Z,17.98
2022-12-23T06:12:11.878Z,16.10
2022-12-23T06:14:40.253Z,13.45
2022-12-23T06:17:08.568Z,14.82
2022-12-23T06:19:38.477Z,13.90
2022-12-23T06:22:07.040Z,17.25
2022-12-23T06:24:35.567Z,14.27
2022-12-23T06:27:04.091Z,15.75
2022-12-23T06:29:32.686Z,13.15
2022-12-23T06:32:01.408Z,11.82
2022-12-23T06:34:31.590Z,12.55
2022-12-23T06:37:01.338Z,16.65
2022-12-23T06:39:30.542Z,14.10
2022-12-23T06:41:59.001Z,13.13
2022-12-23T06:44:27.446Z,16.60
2022-12-23T06:46:56.251Z,14.40
2022-12-23T06:49:24.631Z,15.25
2022-12-23T06:51:53.088Z,17.13
2022-12-23T06:54:22.954Z,13.15
2022-12-23T06:56:51.496Z,18.38
2022-12-23T06:59:19.910Z,14.27
2022-12-23T07:01:48.360Z,12.77
2022-12-23T07:04:16.601Z,14.90
2022-12-23T07:06:44.842Z,17.27
2022-12-23T07:09:13.080Z,14.27
2022-12-23T07:11:42.902Z,12.40
2022-12-23T07:14:11.622Z,13.05
2022-12-23T07:16:39.948Z,9.30
2022-12-23T07:19:10.044Z,11.25
2022-12-23T07:21:38.762Z,16.70
2022-12-23T07:24:08.777Z,12.60
2022-12-23T07:26:37.007Z,11.20
2022-12-23T07:29:07.386Z,12.00
2022-12-23T07:31:40.614Z,13.35
2022-12-23T07:34:09.604Z,11.88
2022-12-23T07:36:38.148Z,14.80
2022-12-23T07:39:06.702Z,19.65
2022-12-23T07:41:35.246Z,17.70
2022-12-23T07:46:38.380Z,14.90
2022-12-23T07:49:07.127Z,14.48
2022-12-23T07:51:36.003Z,19.80
2022-12-23T07:54:04.432Z,12.65
2022-12-23T07:56:32.972Z,16.50
2022-12-23T07:59:01.181Z,14.60
2022-12-23T08:01:31.140Z,17.17
2022-12-23T08:03:59.738Z,17.30
2022-12-23T08:06:28.521Z,14.32
2022-12-23T08:08:56.890Z,17.65
2022-12-23T08:11:25.408Z,20.27
2022-12-23T08:13:53.922Z,22.15
2022-12-23T08:16:22.274Z,15.85
2022-12-23T08:18:51.970Z,22.92
2022-12-23T08:21:21.428Z,26.30
2022-12-23T08:23:50.160Z,21.52
2022-12-23T08:26:20.954Z,21.20
2022-12-23T08:28:53.556Z,18.63
2022-12-23T08:33:56.596Z,16.80
2022-12-23T08:36:27.006Z,14.98
2022-12-23T08:38:57.855Z,17.60
2022-12-23T08:41:30.132Z,17.02
2022-12-23T08:43:59.087Z,15.35
2022-12-23T08:46:27.998Z,16.92
2022-12-23T08:48:57.806Z,15.27
2022-12-23T08:51:27.791Z,11.98
2022-12-23T08:54:01.097Z,11.90
2022-12-23T08:56:34.038Z,12.75
2022-12-23T09:01:35.031Z,9.60
2022-12-23T09:04:06.562Z,10.75
2022-12-23T09:06:38.618Z,11.02
2022-12-23T09:09:08.565Z,10.52
2022-12-23T09:11:37.563Z,10.52
2022-12-23T09:14:07.052Z,10.20
2022-12-23T09:16:35.586Z,13.05
2022-12-23T09:19:06.096Z,12.27
2022-12-23T09:21:34.537Z,12.15
2022-12-23T09:24:03.074Z,7.90
2022-12-23T09:26:33.115Z,9.90
2022-12-23T09:29:02.169Z,8.43
2022-12-23T09:31:36.616Z,11.10
2022-12-23T09:34:07.295Z,5.63
2022-12-23T09:36:36.318Z,8.13
2022-12-23T09:39:05.190Z,7.15
2022-12-23T09:42:01.409Z,9.70
2022-12-23T09:45:05.326Z,9.13
2022-12-23T09:47:35.829Z,7.68
2022-12-23T09:50:17.483Z,11.20
2022-12-23T09:52:58.356Z,7.43
2022-12-23T09:55:37.446Z,7.90
2022-12-23T09:58:16.147Z,4.30
2022-12-23T10:00:59.510Z,8.48
2022-12-23T10:03:37.212Z,5.43
2022-12-23T10:06:16.958Z,3.90
2022-12-23T10:08:49.057Z,6.95
2022-12-23T10:11:23.423Z,4.72
2022-12-23T10:13:57.360Z,5.38
2022-12-23T10:16:32.055Z,6.78
2022-12-23T10:19:06.648Z,6.72
2022-12-23T10:21:47.148Z,6.55
2022-12-23T10:24:23.074Z,4.78
2022-12-23T10:26:56.481Z,4.82
2022-12-23T10:29:28.876Z,5.75
2022-12-23T10:32:21.291Z,8.27
2022-12-23T10:34:59.081Z,7.72
2022-12-23T10:37:40.500Z,10.18
2022-12-23T10:40:20.401Z,10.10
2022-12-23T10:43:01.463Z,4.28
2022-12-23T10:45:50.056Z,4.43
2022-12-23T10:48:34.869Z,6.05
2022-12-23T10:51:09.167Z,6.30
2022-12-23T10:53:49.329Z,7.65
2022-12-23T10:56:19.362Z,6.57
2022-12-23T10:58:56.242Z,8.18
2022-12-23T11:01:27.346Z,6.53
2022-12-23T11:04:08.283Z,8.05
2022-12-23T11:06:41.570Z,7.40
2022-12-23T11:09:18.536Z,9.35
2022-12-23T11:11:59.274Z,8.13
2022-12-23T11:14:42.956Z,7.10
2022-12-23T11:17:23.375Z,5.90
2022-12-23T11:20:13.041Z,7.35
2022-12-23T11:22:51.076Z,6.03
2022-12-23T11:25:30.801Z,8.00
2022-12-23T11:28:03.973Z,7.57
2022-12-23T11:30:38.283Z,12.55
2022-12-23T11:33:07.222Z,8.18
2022-12-23T11:35:38.580Z,11.68
2022-12-23T11:38:15.092Z,8.85
2022-12-23T11:40:48.511Z,5.82
2022-12-23T11:43:18.657Z,7.55
2022-12-23T11:45:47.497Z,6.28
2022-12-23T11:48:30.104Z,6.53
2022-12-23T11:51:04.062Z,13.03
2022-12-23T11:53:32.451Z,7.80
2022-12-23T11:56:07.163Z,7.40
2022-12-23T11:58:52.420Z,5.63
2022-12-23T12:01:24.935Z,6.75
2022-12-23T12:03:59.826Z,6.72
2022-12-23T12:06:29.778Z,7.30
2022-12-23T12:09:01.007Z,2.95
2022-12-23T12:11:38.597Z,5.50
2022-12-23T12:14:09.852Z,18.73
2022-12-23T12:16:56.401Z,15.68
2022-12-23T12:19:29.959Z,7.90
2022-12-23T12:22:03.597Z,15.55
2022-12-23T12:24:38.758Z,11.98
2022-12-23T12:27:12.096Z,14.05
2022-12-23T12:29:46.732Z,19.27
2022-12-23T12:32:24.109Z,21.38
2022-12-23T12:35:01.698Z,15.52
2022-12-23T12:37:39.383Z,15.20
2022-12-23T12:40:22.340Z,10.20
2022-12-23T12:42:59.823Z,13.43
2022-12-23T12:45:35.538Z,8.35
2022-12-23T12:48:35.252Z,6.95
2022-12-23T12:51:13.818Z,6.65
2022-12-23T12:54:01.160Z,4.82
2022-12-23T12:56:41.662Z,3.20
2022-12-23T12:59:18.428Z,2.63
2022-12-23T13:02:39.818Z,6.65
2022-12-23T13:05:30.107Z,8.75
2022-12-23T13:08:23.363Z,9.10
2022-12-23T13:13:43.348Z,8.82
2022-12-23T13:16:31.569Z,4.90
2022-12-23T13:19:07.384Z,7.50
2022-12-23T13:21:45.152Z,8.95
2022-12-23T13:24:24.557Z,7.13
2022-12-23T13:27:07.675Z,8.88
2022-12-23T13:29:58.546Z,9.10
2022-12-23T13:33:06.834Z,7.03
2022-12-23T13:36:04.910Z,7.30
2022-12-23T13:39:14.261Z,5.22
2022-12-23T13:41:46.587Z,7.78
2022-12-23T13:44:15.520Z,6.03
2022-12-23T13:46:56.367Z,5.50
2022-12-23T13:49:59.036Z,4.05
2022-12-23T13:52:50.841Z,5.45
2022-12-23T13:55:45.484Z,6.05
2022-12-23T13:58:18.675Z,5.53
2022-12-23T14:00:47.927Z,5.05
2022-12-23T14:03:25.667Z,6.07
2022-12-23T14:05:55.780Z,6.68
2022-12-23T14:08:39.924Z,3.42
2022-12-23T14:11:17.146Z,3.92
2022-12-23T14:13:55.164Z,5.53
2022-12-23T14:16:48.181Z,4.80
2022-12-23T14:22:23.955Z,5.57
2022-12-23T14:25:38.335Z,2.20
2022-12-23T14:28:27.462Z,4.65
2022-12-23T14:30:57.114Z,2.80
2022-12-23T14:33:29.048Z,3.65
2022-12-23T14:36:15.051Z,4.30
2022-12-23T14:39:31.822Z,2.38
2022-12-23T14:42:06.528Z,1.95
2022-12-23T14:44:51.883Z,2.17
2022-12-23T14:47:36.054Z,3.65
2022-12-23T14:50:42.930Z,3.72
2022-12-23T14:53:25.992Z,3.50
2022-12-23T14:56:21.690Z,3.15
2022-12-23T14:59:21.580Z,2.90
2022-12-23T15:01:53.361Z,2.63
2022-12-23T15:04:26.626Z,2.50
2022-12-23T15:07:00.375Z,2.55
2022-12-23T15:09:32.583Z,4.63
2022-12-23T15:12:12.558Z,1.75
2022-12-23T15:14:47.275Z,3.97
2022-12-23T15:17:19.426Z,2.03
2022-12-23T15:19:48.840Z,3.80
2022-12-23T15:22:25.338Z,1.95
2022-12-23T15:24:57.184Z,2.85
2022-12-23T15:27:36.570Z,2.75
2022-12-23T15:30:05.713Z,2.90
2022-12-23T15:32:34.297Z,4.25
2022-12-23T15:35:07.255Z,4.97
2022-12-23T15:37:35.925Z,3.38
2022-12-23T15:40:12.742Z,5.35
2022-12-23T15:42:49.381Z,3.80
2022-12-23T15:45:35.837Z,4.32
2022-12-23T15:48:07.037Z,3.42
2022-12-23T15:50:41.992Z,4.00
2022-12-23T15:53:14.131Z,5.88
2022-12-23T15:55:42.938Z,2.80
2022-12-23T15:58:21.361Z,4.47
2022-12-23T16:00:55.612Z,4.38
2022-12-23T16:03:31.474Z,5.78
2022-12-23T16:06:10.914Z,4.80
2022-12-23T16:08:40.405Z,9.20
2022-12-23T16:11:16.406Z,9.15
2022-12-23T16:13:59.236Z,12.77
2022-12-23T16:16:42.344Z,12.40
2022-12-23T16:19:39.119Z,12.73
2022-12-23T16:22:19.185Z,12.05
2022-12-23T16:24:49.726Z,16.17
2022-12-23T16:27:20.972Z,12.07
2022-12-23T16:29:51.135Z,15.13
2022-12-23T16:32:20.601Z,17.88
2022-12-23T16:34:52.255Z,15.27
2022-12-23T16:37:21.082Z,19.40
2022-12-23T16:39:50.143Z,16.00
2022-12-23T16:42:20.254Z,17.88
2022-12-23T16:44:51.450Z,16.52
2022-12-23T16:47:20.317Z,20.73
2022-12-23T16:49:48.925Z,24.35
2022-12-23T16:52:18.013Z,24.17
2022-12-23T16:54:49.392Z,17.38
2022-12-23T16:57:18.297Z,16.17
2022-12-23T16:59:47.427Z,18.10
2022-12-23T17:02:25.360Z,25.90
2022-12-23T17:04:53.869Z,14.80
2022-12-23T17:07:23.914Z,17.85
2022-12-23T17:09:52.538Z,20.98
2022-12-23T17:12:22.648Z,17.27
2022-12-23T17:14:51.270Z,19.73
2022-12-23T17:17:25.768Z,22.13
2022-12-23T17:19:56.167Z,21.15
2022-12-23T17:22:24.773Z,23.40
2022-12-23T17:24:53.468Z,24.70
2022-12-23T17:27:22.086Z,29.55
2022-12-23T17:29:51.021Z,35.03
2022-12-23T17:32:21.372Z,27.00
2022-12-23T17:34:50.064Z,31.45
2022-12-23T17:37:21.634Z,28.15
2022-12-23T17:39:50.722Z,27.75
2022-12-23T17:42:25.795Z,26.45
2022-12-23T17:44:54.845Z,31.20
2022-12-23T17:47:25.034Z,35.22
2022-12-23T17:49:53.841Z,25.25
2022-12-23T17:52:25.368Z,27.90
2022-12-23T17:54:53.974Z,22.83
2022-12-23T17:57:25.754Z,25.23
2022-12-23T17:59:56.814Z,26.83
2022-12-23T18:02:30.683Z,27.48
2022-12-23T18:04:59.467Z,25.95
2022-12-23T18:07:31.706Z,25.20
2022-12-23T18:10:00.099Z,25.33
2022-12-23T18:12:36.226Z,29.13
2022-12-23T18:15:07.105Z,23.83
2022-12-23T18:17:37.031Z,26.23
2022-12-23T18:20:06.653Z,32.55
2022-12-23T18:22:35.224Z,22.80
2022-12-23T18:25:04.355Z,27.50
2022-12-23T18:27:32.547Z,24.13
2022-12-23T18:30:00.975Z,29.95
2022-12-23T18:32:29.892Z,31.73
2022-12-23T18:35:00.981Z,23.52
2022-12-23T18:37:29.779Z,31.13
2022-12-23T18:39:58.410Z,25.48
2022-12-23T18:42:26.855Z,24.00
2022-12-23T18:44:55.389Z,21.55
2022-12-23T18:47:23.740Z,32.95
2022-12-23T18:49:52.669Z,31.45
2022-12-23T18:52:22.753Z,33.17
2022-12-23T18:54:53.473Z,30.55
2022-12-23T18:57:21.798Z,24.08
2022-12-23T18:59:50.336Z,37.67
2022-12-23T19:02:18.806Z,26.90
2022-12-23T19:04:47.519Z,30.67
2022-12-23T19:07:16.488Z,32.17
2022-12-23T19:09:46.333Z,32.90
2022-12-23T19:12:14.644Z,34.88
2022-12-23T19:14:43.826Z,26.55
2022-12-23T19:17:12.253Z,28.92
2022-12-23T19:19:41.015Z,32.88
2022-12-23T19:22:09.491Z,26.60
2022-12-23T19:24:46.946Z,27.42
2022-12-23T19:27:27.854Z,31.60
2022-12-23T19:29:56.860Z,34.08
2022-12-23T19:32:25.565Z,28.15
2022-12-23T19:34:54.105Z,31.77
2022-12-23T19:37:22.353Z,22.58
2022-12-23T19:39:50.993Z,38.25
2022-12-23T19:42:19.812Z,30.88
2022-12-23T19:44:50.284Z,32.60
2022-12-23T19:47:19.248Z,28.20
2022-12-23T19:49:47.726Z,30.58
2022-12-23T19:52:16.084Z,36.10
2022-12-23T19:54:44.539Z,27.55
2022-12-23T19:57:12.802Z,29.02
2022-12-23T19:59:41.586Z,23.10
2022-12-23T20:02:15.476Z,24.13
2022-12-23T20:04:44.457Z,21.50
2022-12-23T20:07:13.084Z,20.63
2022-12-23T20:09:41.824Z,24.13
2022-12-23T20:12:10.593Z,21.75
2022-12-23T20:14:39.107Z,22.40
2022-12-23T20:17:07.893Z,28.20
2022-12-23T20:19:45.500Z,20.90
2022-12-23T20:22:15.345Z,23.00
2022-12-23T20:24:43.825Z,23.35
2022-12-23T20:27:15.615Z,27.95
2022-12-23T20:29:44.511Z,26.45
2022-12-23T20:32:13.364Z,25.38
2022-12-23T20:34:43.376Z,23.85
2022-12-23T20:37:11.892Z,24.00
2022-12-23T20:39:40.118Z,30.67
2022-12-23T20:42:08.832Z,28.20
2022-12-23T20:44:37.753Z,23.20
2022-12-23T20:47:06.996Z,25.13
2022-12-23T20:49:36.893Z,27.00
2022-12-23T20:52:07.087Z,25.58
2022-12-23T20:54:35.671Z,21.70
2022-12-23T20:57:04.308Z,26.50
2022-12-23T20:59:33.152Z,28.60
2022-12-23T21:02:02.388Z,23.50
2022-12-23T21:04:30.731Z,31.10
2022-12-23T21:06:59.420Z,25.98
2022-12-23T21:09:29.712Z,24.10
2022-12-23T21:11:57.959Z,27.25
2022-12-23T21:14:26.759Z,28.20
2022-12-23T21:16:55.852Z,26.73
2022-12-23T21:19:26.394Z,29.40
2022-12-23T21:21:55.537Z,25.67
2022-12-23T21:24:24.919Z,27.60
2022-12-23T21:26:56.772Z,24.80
2022-12-23T21:29:26.297Z,23.50
2022-12-23T21:31:55.446Z,26.30
2022-12-23T21:34:24.238Z,29.10
2022-12-23T21:36:53.069Z,23.70
2022-12-23T21:39:21.733Z,30.13
2022-12-23T21:41:51.472Z,27.20
2022-12-23T21:44:21.689Z,25.00
2022-12-23T21:46:52.256Z,31.88
2022-12-23T21:49:21.996Z,28.25
2022-12-23T21:51:50.338Z,26.58
2022-12-23T21:54:18.860Z,28.85
2022-12-23T21:56:47.583Z,35.30
2022-12-23T21:59:16.803Z,29.08
2022-12-23T22:01:46.636Z,27.73
2022-12-23T22:04:15.202Z,30.35
2022-12-23T22:06:45.472Z,29.75
2022-12-23T22:09:16.896Z,27.55
2022-12-23T22:11:46.877Z,34.33
2022-12-23T22:14:19.128Z,27.00
2022-12-23T22:16:49.086Z,30.67
2022-12-23T22:19:17.782Z,31.98
2022-12-23T22:21:46.523Z,34.92
2022-12-23T22:24:14.988Z,27.05
2022-12-23T22:26:43.489Z,28.17
2022-12-23T22:29:13.226Z,43.70
2022-12-23T22:31:46.092Z,28.30
2022-12-23T22:34:18.817Z,36.13
2022-12-23T22:39:20.921Z,31.02
2022-12-23T22:41:51.389Z,25.55
2022-12-23T22:44:20.790Z,31.55
2022-12-23T22:46:50.007Z,36.92
2022-12-23T22:49:20.074Z,33.42
2022-12-23T22:51:48.630Z,30.08
2022-12-23T22:54:17.082Z,36.10
2022-12-23T22:56:47.161Z,34.25
2022-12-23T22:59:25.088Z,38.38
2022-12-23T23:01:55.050Z,39.45
2022-12-23T23:04:26.682Z,31.38
2022-12-23T23:06:56.916Z,43.17
2022-12-23T23:09:25.865Z,39.10
2022-12-23T23:11:54.419Z,34.63
2022-12-23T23:14:23.251Z,40.65
2022-12-23T23:16:52.235Z,29.80
2022-12-23T23:19:22.045Z,34.17
2022-12-23T23:21:53.442Z,32.25
2022-12-23T23:24:27.708Z,41.60
2022-12-23T23:26:59.585Z,29.08
2022-12-23T23:29:28.264Z,34.58
2022-12-23T23:31:56.886Z,31.88
2022-12-23T23:34:25.496Z,45.58
2022-12-23T23:36:55.413Z,30.60
2022-12-23T23:39:23.616Z,36.30
2022-12-23T23:41:52.180Z,34.60
2022-12-23T23:44:20.870Z,41.92
2022-12-23T23:46:50.068Z,33.47
2022-12-23T23:49:18.539Z,29.73
2022-12-23T23:51:46.820Z,39.50
2022-12-23T23:54:16.645Z,32.50
2022-12-23T23:56:45.157Z,40.60
2022-12-23T23:59:13.481Z,39.25
